< < Back
Terminal Aerodrome Forecast


Current Version              Previous Versions:   1  2  3  4  5  6  7  8  9  

Terminal Aerodrome Forecast

366
FTUS42 KGSP 061130
TAFAND
TAF
KAND 061130Z 0612/0712 06005KT P6SM BKN250
     FM062100 06004KT P6SM SCT080 BKN250
     FM070600 03003KT P6SM BKN250=

Latest METAR

860
SAUS70 KWBC 070800 RRD
MTRAND
METAR KAND 070756Z AUTO 01005KT 10SM CLR 03/M08 A3014 RMK AO2 SLP207
T00281083


USA.gov is the U.S. government's official web portal to all federal, state and local government web resources and services.